Augusta Township, Michigan
Current Conditions -  °F | °C
As of 7:53 PM on Friday 24 Oct 2014 (Local Time) from KARB Reporting Station
Overcast Overcast  
Wind Chill: 49°   Ceiling: 4000
Heat Index: 49°   Visibility: 10mi
Dew Point: 43°   Wind: 0mph
Humidity: 80%   Direction: NA
Pressure: 29.99"   Gusts: NA
Location:  42.0828°N, 83.683°W
Report Text: KARB 242353Z AUTO 00000KT 10SM OVC040 09/06 A2999 RMK AO2 SLP162 T00940061 10156 20094 53001
Loading
Personal Weather Stations






























Interactive Weather Map New forecast layout! Learn more

10-Day Weather Forecast

Advertisements
Track Severe Weather on mobile